• Join FlightAware (Why Join?)
  • Login
  • US Flag 
09:27AM EDT


 

Airport Tracker/Info


-or-


 

Live Flight TrackerFlight Track Log ✈ UCA3599 ✈ 22-Mar-2014 ✈ KROA - KIAD

Flight Track Log - Related Links

Times and Time Zones

All times are in EDT time to prevent confusion due to time zone crossing. See the UCA3599 flight status page for this flight to view local times or setup timezone preferences in your user account.

Time Position Orientation Groundspeed Altitude Reporting Facility
EDT Latitude Longitude Course Direction KTS MPH feet Rate Location/Type
06:13AM 37.2492 -80.0092 51° Northeast 155 178 5,000  Level Washington Center
06:14AM 37.2453 -79.9464 94° East 215 247 6,200 1,320 Climbing Washington Center
06:16AM 37.2728 -79.8800 62° Northeast 220 253 7,900 1,380 Climbing Washington Center
06:16AM 37.3142 -79.8303 44° Northeast 210 242 9,000 1,140 Climbing Washington Center
06:17AM 37.3575 -79.7803 43° Northeast 210 242 10,200 960 Climbing Washington Center
06:18AM 37.6112 -79.5317 51° Northeast  Level FlightAware Approximate
06:19AM 37.6595 -79.4576 51° Northeast  Level FlightAware Approximate
06:19AM 37.4056 -79.7228 44° Northeast 217 250 11,000  Level Washington Center
06:19AM 37.4556 -79.6575 46° Northeast 254 292 11,000  Level Washington Center
06:21AM 37.5167 -79.5822 44° Northeast 274 315 11,000  Level Washington Center
06:21AM 37.5686 -79.5219 43° Northeast 274 315 11,000  Level Washington Center
06:22AM 37.6356 -79.4522 40° Northeast 274 315 11,000  Level Washington Center
06:24AM 37.6917 -79.3944 39° Northeast 280 322 11,000  Level Washington Center
06:24AM 37.7522 -79.3294 40° Northeast 286 329 11,000  Level Washington Center
06:25AM 37.8147 -79.2642 40° Northeast 286 329 11,000  Level Washington Center
06:27AM 37.8817 -79.1911 41° Northeast 291 335 11,000  Level Washington Center
06:27AM 37.9419 -79.1256 41° Northeast 291 335 11,000  Level Washington Center
06:29AM 38.0042 -79.0600 40° Northeast 291 335 11,000  Level Washington Center
06:30AM 38.0644 -78.9942 41° Northeast 291 335 11,000  Level Washington Center
06:31AM 38.1206 -78.9333 40° Northeast 291 335 11,000  Level Washington Center
06:31AM 38.1808 -78.8672 41° Northeast 291 335 11,000  Level Washington Center
06:32AM 38.2408 -78.8011 41° Northeast 291 335 11,000 -120 Level Washington Center
06:33AM 38.3011 -78.7322 42° Northeast 291 335 10,800 -600 Descending Washington Center
06:35AM 38.3633 -78.6633 41° Northeast 291 335 9,800 -1,020 Descending Washington Center
06:36AM 38.4256 -78.5944 41° Northeast 291 335 8,800 -1,020 Descending Washington Center
06:37AM 38.4856 -78.5253 42° Northeast 291 335 7,800 -960 Descending Washington Center
06:37AM 38.5414 -78.4664 40° Northeast 281 323 7,000 -480 Descending Washington Center
06:38AM 38.5947 -78.4075 41° Northeast 262 302 6,900 -60 Descending Washington Center
06:40AM 38.6506 -78.3431 42° Northeast 262 302 6,900  Level Washington Center
06:40AM 38.7061 -78.2811 41° Northeast 262 302 7,000 -420 Climbing Washington Center
06:41AM 38.7578 -78.2033 50° Northeast 272 313 6,100 -540 Descending Washington Center
06:42AM 38.8136 -78.1281 46° Northeast 272 313 6,000 -120 Descending Washington Center
06:43AM 38.8631 -78.0603 47° Northeast 262 302 5,900 -60 Descending Washington Center
06:44AM 38.9003 -77.9736 61° Northeast 262 302 5,900  Level Washington Center
06:45AM 38.9311 -77.8811 67° East 262 302 5,900  Level Washington Center
06:48AM 38.9500 -77.6667 83° East 282 325 5,900  Level Potomac TRACON
06:49AM 39.0000 -77.5833 52° Northeast 274 315 5,900 -180 Level Potomac TRACON
06:50AM 39.0500 -77.5500 27° Northeast 259 298 5,600 -720 Descending Potomac TRACON
06:51AM 39.1167 -77.5333 11° North 245 282 4,500 -1,140 Descending Potomac TRACON
06:52AM 39.1167 -77.4667 90° East 248 285 3,400 -1,080 Descending Potomac TRACON
06:53AM 39.0833 -77.4500 159° South 147 169 2,500 -840 Descending Potomac TRACON
06:54AM 39.0500 -77.4500 180° South 112 129 1,800 -600 Descending Potomac TRACON
06:55AM 39.0167 -77.4500 180° South 112 129 1,400 -600 Descending Potomac TRACON
06:56AM 38.9833 -77.4667 201° Southwest 106 122 700 -720 Descending Potomac TRACON
06:58AM 38.9474 -77.4599 180° South  Level Estimated
07:05AM 38.9474 -77.4599 180° South  Level Estimated
07:06AM 38.9474 -77.4599 151° Southeast  Level Estimated